createdAt,value
2018-12-30T00:00:05.047Z,91.18
2018-12-30T00:02:32.179Z,91.15
2018-12-30T00:04:59.231Z,91.15
2018-12-30T00:07:26.444Z,90.80
2018-12-30T00:09:53.204Z,90.33
2018-12-30T00:12:20.072Z,90.33
2018-12-30T00:14:46.936Z,90.33
2018-12-30T00:17:13.659Z,90.04
2018-12-30T00:19:42.674Z,90.04
2018-12-30T00:22:09.031Z,90.22
2018-12-30T00:24:35.734Z,89.92
2018-12-30T00:27:02.895Z,89.79
2018-12-30T00:32:12.647Z,89.68
2018-12-30T00:34:42.098Z,89.42
2018-12-30T00:37:08.821Z,89.30
2018-12-30T00:39:35.529Z,89.11
2018-12-30T00:42:02.385Z,89.54
2018-12-30T00:44:32.105Z,89.54
2018-12-30T00:46:58.829Z,89.29
2018-12-30T00:49:25.941Z,89.36
2018-12-30T00:51:52.653Z,89.63
2018-12-30T00:54:19.344Z,89.68
2018-12-30T00:56:46.083Z,89.68
2018-12-30T00:59:12.783Z,90.22
2018-12-30T01:01:40.035Z,90.39
2018-12-30T01:04:06.717Z,90.39
2018-12-30T01:06:33.558Z,90.46
2018-12-30T01:09:00.272Z,90.47
2018-12-30T01:11:27.339Z,90.47
2018-12-30T01:13:54.041Z,90.39
2018-12-30T01:16:20.904Z,90.23
2018-12-30T01:18:47.646Z,89.94
2018-12-30T01:21:14.371Z,89.94
2018-12-30T01:23:41.088Z,90.14
2018-12-30T01:26:08.135Z,89.83
2018-12-30T01:28:34.844Z,89.83
2018-12-30T01:31:03.456Z,90.15
2018-12-30T01:33:30.205Z,90.04
2018-12-30T01:35:58.375Z,90.19
2018-12-30T01:38:25.106Z,90.23
2018-12-30T01:40:51.854Z,90.03
2018-12-30T01:43:18.963Z,89.72
2018-12-30T01:45:47.206Z,89.72
2018-12-30T01:48:13.898Z,89.88
2018-12-30T01:50:40.588Z,89.66
2018-12-30T01:53:07.925Z,89.60
2018-12-30T01:55:34.760Z,89.69
2018-12-30T01:58:01.601Z,89.48
2018-12-30T02:00:28.310Z,89.77
2018-12-30T02:02:58.034Z,89.77
2018-12-30T02:05:30.057Z,89.50
2018-12-30T02:07:56.784Z,89.47
2018-12-30T02:10:23.552Z,89.40
2018-12-30T02:12:50.687Z,89.40
2018-12-30T02:15:17.388Z,89.33
2018-12-30T02:17:44.114Z,88.89
2018-12-30T02:20:13.324Z,88.89
2018-12-30T02:22:42.727Z,88.74
2018-12-30T02:25:12.264Z,88.57
2018-12-30T02:27:39.416Z,88.57
2018-12-30T02:30:06.157Z,88.57
2018-12-30T02:32:32.867Z,88.03
2018-12-30T02:34:59.692Z,88.03
2018-12-30T02:37:26.407Z,88.46
2018-12-30T02:39:53.490Z,88.46
2018-12-30T02:42:20.193Z,88.38
2018-12-30T02:44:48.062Z,88.29
2018-12-30T02:47:17.642Z,88.29
2018-12-30T02:49:44.435Z,88.29
2018-12-30T02:52:11.147Z,88.30
2018-12-30T02:54:38.385Z,88.05
2018-12-30T02:57:05.100Z,87.76
2018-12-30T02:59:31.804Z,87.76
2018-12-30T03:01:59.393Z,87.57
2018-12-30T03:04:26.129Z,86.94
2018-12-30T03:06:52.829Z,87.18
2018-12-30T03:09:19.539Z,87.18
2018-12-30T03:11:46.388Z,87.27
2018-12-30T03:14:16.235Z,87.40
2018-12-30T03:16:48.419Z,87.39
2018-12-30T03:19:17.340Z,87.26
2018-12-30T03:21:44.770Z,87.25
2018-12-30T03:24:11.504Z,87.25
2018-12-30T03:26:38.239Z,87.34
2018-12-30T03:29:07.781Z,87.34
2018-12-30T03:31:34.598Z,87.45
2018-12-30T03:34:01.302Z,87.45
2018-12-30T03:36:30.423Z,87.01
2018-12-30T03:38:57.161Z,86.97
2018-12-30T03:41:23.993Z,86.75
2018-12-30T03:43:50.751Z,87.13
2018-12-30T03:46:17.671Z,87.13
2018-12-30T03:48:44.363Z,87.26
2018-12-30T03:51:11.089Z,87.26
2018-12-30T03:53:37.812Z,87.21
2018-12-30T03:56:04.590Z,87.28
2018-12-30T03:58:31.403Z,87.28
2018-12-30T04:00:58.141Z,86.90
2018-12-30T04:03:24.869Z,86.88
2018-12-30T04:05:51.583Z,87.02
2018-12-30T04:08:18.684Z,87.02
2018-12-30T04:10:45.434Z,86.65
2018-12-30T04:13:12.167Z,86.65
2018-12-30T04:15:38.854Z,86.44
2018-12-30T04:18:05.836Z,86.11
2018-12-30T04:20:32.562Z,86.10
2018-12-30T04:22:59.280Z,86.10
2018-12-30T04:25:26.017Z,86.09
2018-12-30T04:27:53.034Z,86.09
2018-12-30T04:30:19.761Z,86.05
2018-12-30T04:32:46.516Z,86.06
2018-12-30T04:35:13.253Z,86.06
2018-12-30T04:37:41.973Z,85.90
2018-12-30T04:40:08.709Z,85.60
2018-12-30T04:42:35.404Z,85.70
2018-12-30T04:45:02.126Z,85.72
2018-12-30T04:47:28.988Z,86.15
2018-12-30T04:49:55.740Z,86.15
2018-12-30T04:52:25.806Z,86.44
2018-12-30T04:54:51.207Z,86.20
2018-12-30T04:57:17.915Z,86.20
2018-12-30T04:59:45.965Z,85.63
2018-12-30T05:02:12.716Z,85.55
2018-12-30T05:04:39.456Z,85.52
2018-12-30T05:07:06.194Z,85.52
2018-12-30T05:09:32.913Z,85.60
2018-12-30T05:11:59.655Z,85.65
2018-12-30T05:14:26.695Z,85.65
2018-12-30T05:16:53.374Z,85.52
2018-12-30T05:19:20.503Z,84.93
2018-12-30T05:21:47.205Z,84.93
2018-12-30T05:24:13.968Z,85.37
2018-12-30T05:26:40.666Z,85.27
2018-12-30T05:29:07.400Z,84.86
2018-12-30T05:31:34.132Z,84.95
2018-12-30T05:34:00.822Z,84.95
2018-12-30T05:36:27.575Z,84.68
2018-12-30T05:38:54.266Z,84.80
2018-12-30T05:41:20.992Z,84.31
2018-12-30T05:43:47.698Z,84.51
2018-12-30T05:46:14.392Z,84.79
2018-12-30T05:48:41.587Z,85.05
2018-12-30T05:51:08.377Z,85.08
2018-12-30T05:53:35.098Z,85.08
2018-12-30T05:56:01.793Z,84.56
2018-12-30T05:58:28.551Z,84.56
2018-12-30T06:00:55.251Z,84.60
2018-12-30T06:03:22.192Z,84.60
2018-12-30T06:05:48.899Z,84.38
2018-12-30T06:08:15.653Z,84.03
2018-12-30T06:10:42.497Z,84.03
2018-12-30T06:13:11.089Z,84.51
2018-12-30T06:15:37.807Z,84.51
2018-12-30T06:18:04.528Z,84.88
2018-12-30T06:20:31.438Z,84.54
2018-12-30T06:22:58.137Z,84.77
2018-12-30T06:25:24.821Z,84.85
2018-12-30T06:27:51.567Z,84.85
2018-12-30T06:30:18.294Z,84.29
2018-12-30T06:32:45.062Z,84.15
2018-12-30T06:35:11.778Z,83.93
2018-12-30T06:37:38.525Z,84.17
2018-12-30T06:40:11.262Z,84.27
2018-12-30T06:42:34.174Z,84.27
2018-12-30T06:45:01.233Z,85.10
2018-12-30T06:47:27.924Z,85.24
2018-12-30T06:49:55.049Z,84.96
2018-12-30T06:52:21.724Z,84.69
2018-12-30T06:54:48.451Z,84.69
2018-12-30T06:57:15.257Z,84.94
2018-12-30T06:59:41.961Z,84.96
2018-12-30T07:02:08.728Z,85.45
2018-12-30T07:04:35.441Z,85.08
2018-12-30T07:07:02.156Z,85.19
2018-12-30T07:09:28.884Z,85.41
2018-12-30T07:11:55.602Z,85.41
2018-12-30T07:14:22.328Z,85.32
2018-12-30T07:16:49.428Z,85.32
2018-12-30T07:19:16.210Z,85.50
2018-12-30T07:21:42.939Z,85.50
2018-12-30T07:24:09.696Z,85.50
2018-12-30T07:26:36.362Z,85.02
2018-12-30T07:29:03.557Z,85.06
2018-12-30T07:31:30.347Z,85.26
2018-12-30T07:33:57.077Z,85.33
2018-12-30T07:36:23.769Z,85.33
2018-12-30T07:38:50.799Z,85.14
2018-12-30T07:41:18.191Z,85.16
2018-12-30T07:43:45.257Z,84.70
2018-12-30T07:46:11.981Z,84.70
2018-12-30T07:48:38.721Z,84.78
2018-12-30T07:51:05.721Z,84.45
2018-12-30T07:53:32.466Z,84.63
2018-12-30T07:55:59.141Z,84.63
2018-12-30T07:58:25.868Z,84.59
2018-12-30T08:00:52.624Z,84.59
2018-12-30T08:03:19.600Z,83.81
2018-12-30T08:05:46.314Z,83.81
2018-12-30T08:08:13.021Z,83.71
2018-12-30T08:10:39.826Z,83.71
2018-12-30T08:13:06.538Z,83.69
2018-12-30T08:15:33.606Z,83.69
2018-12-30T08:18:00.400Z,83.79
2018-12-30T08:20:27.162Z,83.63
2018-12-30T08:22:53.871Z,83.75
2018-12-30T08:25:20.646Z,83.55
2018-12-30T08:27:47.488Z,83.80
2018-12-30T08:30:14.546Z,83.54
2018-12-30T08:32:41.256Z,83.38
2018-12-30T08:35:07.979Z,83.26
2018-12-30T08:37:34.682Z,83.03
2018-12-30T08:40:01.411Z,83.12
2018-12-30T08:42:28.239Z,83.12
2018-12-30T08:44:55.009Z,83.06
2018-12-30T08:47:21.787Z,82.85
2018-12-30T08:49:48.631Z,82.85
2018-12-30T08:52:15.614Z,82.50
2018-12-30T08:54:42.357Z,83.06
2018-12-30T08:57:09.121Z,83.05
2018-12-30T08:59:35.853Z,82.77
2018-12-30T09:02:02.552Z,82.60
2018-12-30T09:04:29.281Z,82.81
2018-12-30T09:06:56.008Z,82.81
2018-12-30T09:09:22.708Z,82.45
2018-12-30T09:11:49.508Z,82.03
2018-12-30T09:14:16.271Z,82.22
2018-12-30T09:16:44.673Z,82.58
2018-12-30T09:19:11.366Z,82.10
2018-12-30T09:21:38.436Z,82.10
2018-12-30T09:24:05.157Z,82.14
2018-12-30T09:26:31.855Z,82.14
2018-12-30T09:28:58.912Z,81.97
2018-12-30T09:31:26.832Z,81.79
2018-12-30T09:33:53.685Z,81.76
2018-12-30T09:36:21.815Z,81.98
2018-12-30T09:38:48.570Z,81.98
2018-12-30T09:41:15.474Z,81.87
2018-12-30T09:43:42.481Z,81.93
2018-12-30T09:46:09.192Z,81.83
2018-12-30T09:48:37.815Z,81.25
2018-12-30T09:51:04.540Z,81.25
2018-12-30T09:53:31.536Z,81.32
2018-12-30T09:55:58.261Z,81.31
2018-12-30T09:58:27.124Z,80.66
2018-12-30T10:00:53.898Z,80.52
2018-12-30T10:03:20.637Z,80.67
2018-12-30T10:05:47.371Z,80.19
2018-12-30T10:08:14.110Z,80.16
2018-12-30T10:10:40.872Z,80.25
2018-12-30T10:13:08.403Z,79.99
2018-12-30T10:15:38.257Z,79.69
2018-12-30T10:18:04.994Z,80.09
2018-12-30T10:20:31.673Z,79.88
2018-12-30T10:22:58.832Z,80.36
2018-12-30T10:25:25.806Z,80.63
2018-12-30T10:27:52.622Z,81.06
2018-12-30T10:30:19.342Z,80.84
2018-12-30T10:32:46.055Z,80.95
2018-12-30T10:35:12.930Z,81.18
2018-12-30T10:37:39.977Z,81.32
2018-12-30T10:40:06.724Z,81.37
2018-12-30T10:42:33.663Z,81.25
2018-12-30T10:45:00.371Z,81.47
2018-12-30T10:47:27.441Z,81.51
2018-12-30T10:49:54.133Z,81.67
2018-12-30T10:52:20.842Z,81.63
2018-12-30T10:54:47.705Z,81.54
2018-12-30T10:57:14.452Z,81.59
2018-12-30T10:59:41.219Z,81.45
2018-12-30T11:02:07.927Z,81.45
2018-12-30T11:04:34.714Z,81.46
2018-12-30T11:07:01.608Z,81.51
2018-12-30T11:09:28.315Z,80.98
2018-12-30T11:12:02.557Z,80.74
2018-12-30T11:14:29.823Z,80.65
2018-12-30T11:16:56.727Z,80.82
2018-12-30T11:19:23.676Z,80.55
2018-12-30T11:21:50.424Z,80.60
2018-12-30T11:24:17.243Z,80.07
2018-12-30T11:26:44.142Z,80.40
2018-12-30T11:29:10.864Z,80.14
2018-12-30T11:31:37.890Z,80.30
2018-12-30T11:34:07.135Z,79.71
2018-12-30T11:36:33.860Z,79.90
2018-12-30T11:39:00.611Z,79.69
2018-12-30T11:41:27.358Z,79.71
2018-12-30T11:43:54.082Z,79.81
2018-12-30T11:46:20.812Z,79.88
2018-12-30T11:48:47.635Z,80.04
2018-12-30T11:51:14.770Z,79.51
2018-12-30T11:53:41.838Z,79.33
2018-12-30T11:56:08.731Z,79.37
2018-12-30T11:58:35.651Z,79.47
2018-12-30T12:01:02.490Z,78.95
2018-12-30T12:03:29.219Z,78.81
2018-12-30T12:05:56.034Z,78.96
2018-12-30T12:08:23.173Z,79.26
2018-12-30T12:10:49.910Z,79.18
2018-12-30T12:13:16.609Z,79.16
2018-12-30T12:15:43.385Z,79.20
2018-12-30T12:18:10.107Z,79.30
2018-12-30T12:20:36.902Z,79.44
2018-12-30T12:23:03.650Z,79.21
2018-12-30T12:25:30.798Z,78.99
2018-12-30T12:27:57.547Z,79.15
2018-12-30T12:30:24.775Z,79.41
2018-12-30T12:32:51.927Z,79.14
2018-12-30T12:35:18.637Z,79.18
2018-12-30T12:37:45.387Z,79.18
2018-12-30T12:40:12.110Z,79.35
2018-12-30T12:42:38.856Z,79.81
2018-12-30T12:45:05.631Z,79.83
2018-12-30T12:47:32.562Z,79.87
2018-12-30T12:49:59.304Z,79.79
2018-12-30T12:52:26.309Z,79.91
2018-12-30T12:54:53.048Z,79.73
2018-12-30T12:57:22.704Z,79.83
2018-12-30T12:59:49.463Z,79.81
2018-12-30T13:02:16.186Z,79.57
2018-12-30T13:04:42.889Z,79.60
2018-12-30T13:07:09.652Z,79.39
2018-12-30T13:09:37.018Z,79.49
2018-12-30T13:12:03.779Z,79.65
2018-12-30T13:14:31.269Z,79.88
2018-12-30T13:16:59.440Z,79.93
2018-12-30T13:19:26.167Z,79.59
2018-12-30T13:21:52.935Z,79.15
2018-12-30T13:24:22.261Z,79.27
2018-12-30T13:26:51.029Z,79.26
2018-12-30T13:29:17.860Z,79.16
2018-12-30T13:31:44.610Z,79.13
2018-12-30T13:34:11.358Z,79.33
2018-12-30T13:36:38.368Z,79.28
2018-12-30T13:39:06.326Z,79.40
2018-12-30T13:41:33.066Z,79.42
2018-12-30T13:43:59.894Z,79.61
2018-12-30T13:46:26.601Z,79.00
2018-12-30T13:48:54.489Z,79.25
2018-12-30T13:51:21.238Z,79.19
2018-12-30T13:53:47.965Z,79.04
2018-12-30T13:56:14.958Z,78.98
2018-12-30T13:58:41.801Z,79.03
2018-12-30T14:01:08.534Z,79.13
2018-12-30T14:03:35.380Z,79.05
2018-12-30T14:06:03.536Z,79.01
2018-12-30T14:08:31.726Z,78.80
2018-12-30T14:10:58.443Z,78.95
2018-12-30T14:13:25.153Z,78.69
2018-12-30T14:15:52.316Z,78.95
2018-12-30T14:18:19.032Z,79.34
2018-12-30T14:20:46.146Z,79.23
2018-12-30T14:23:12.894Z,79.15
2018-12-30T14:25:39.711Z,79.33
2018-12-30T14:28:09.085Z,79.08
2018-12-30T14:30:35.809Z,79.38
2018-12-30T14:33:02.596Z,79.10
2018-12-30T14:35:30.010Z,79.21
2018-12-30T14:37:57.163Z,79.30
2018-12-30T14:40:23.992Z,79.13
2018-12-30T14:42:50.858Z,78.97
2018-12-30T14:45:17.688Z,78.71
2018-12-30T14:47:44.475Z,78.73
2018-12-30T14:50:11.894Z,78.86
2018-12-30T14:52:38.779Z,78.97
2018-12-30T14:55:06.012Z,79.12
2018-12-30T14:57:33.114Z,79.18
2018-12-30T15:00:00.034Z,79.19
2018-12-30T15:02:26.774Z,79.31
2018-12-30T15:04:53.495Z,79.55
2018-12-30T15:07:20.238Z,79.68
2018-12-30T15:09:47.045Z,79.90
2018-12-30T15:12:14.174Z,79.78
2018-12-30T15:14:40.992Z,79.80
2018-12-30T15:17:08.016Z,79.75
2018-12-30T15:19:34.802Z,79.85
2018-12-30T15:22:01.536Z,79.56
2018-12-30T15:24:28.263Z,79.52
2018-12-30T15:26:55.286Z,79.49
2018-12-30T15:29:22.089Z,79.49
2018-12-30T15:31:49.447Z,79.64
2018-12-30T15:34:16.458Z,79.81
2018-12-30T15:36:43.208Z,79.71
2018-12-30T15:39:10.265Z,79.11
2018-12-30T15:41:36.992Z,79.38
2018-12-30T15:44:05.024Z,79.33
2018-12-30T15:46:33.070Z,79.33
2018-12-30T15:48:59.941Z,79.50
2018-12-30T15:51:26.764Z,79.64
2018-12-30T15:53:54.787Z,79.69
2018-12-30T15:56:21.608Z,79.51
2018-12-30T15:58:48.364Z,79.18
2018-12-30T16:01:15.621Z,79.10
2018-12-30T16:03:42.892Z,79.05
2018-12-30T16:06:10.129Z,79.21
2018-12-30T16:08:36.985Z,79.12
2018-12-30T16:11:06.125Z,78.92
2018-12-30T16:13:32.930Z,79.10
2018-12-30T16:16:01.642Z,79.31
2018-12-30T16:18:28.378Z,79.16
2018-12-30T16:20:55.105Z,79.32
2018-12-30T16:23:22.356Z,79.43
2018-12-30T16:25:49.090Z,79.31
2018-12-30T16:28:15.931Z,79.31
2018-12-30T16:30:42.771Z,79.42
2018-12-30T16:33:10.016Z,79.36
2018-12-30T16:35:36.822Z,79.62
2018-12-30T16:38:05.338Z,79.76
2018-12-30T16:40:32.517Z,79.90
2018-12-30T16:42:59.289Z,79.63
2018-12-30T16:45:26.038Z,79.72
2018-12-30T16:48:01.179Z,79.52
2018-12-30T16:50:27.880Z,79.46
2018-12-30T16:52:55.050Z,79.78
2018-12-30T16:55:34.728Z,79.95
2018-12-30T16:57:56.949Z,80.11
2018-12-30T17:00:25.678Z,80.25
2018-12-30T17:02:52.584Z,80.42
2018-12-30T17:05:23.146Z,80.71
2018-12-30T17:07:50.286Z,80.78
2018-12-30T17:10:17.925Z,80.72
2018-12-30T17:12:44.924Z,80.98
2018-12-30T17:15:15.303Z,81.01
2018-12-30T17:17:43.599Z,81.18
2018-12-30T17:20:10.459Z,81.32
2018-12-30T17:22:37.188Z,81.28
2018-12-30T17:25:10.297Z,81.33
2018-12-30T17:27:37.123Z,81.48
2018-12-30T17:30:04.893Z,81.62
2018-12-30T17:32:31.654Z,82.01
2018-12-30T17:35:01.499Z,82.32
2018-12-30T17:37:28.219Z,82.59
2018-12-30T17:39:54.939Z,82.50
2018-12-30T17:42:21.665Z,82.62
2018-12-30T17:44:51.326Z,82.52
2018-12-30T17:47:20.322Z,82.52
2018-12-30T17:49:47.166Z,82.69
2018-12-30T17:52:14.020Z,82.69
2018-12-30T17:54:40.870Z,82.96
2018-12-30T17:57:11.034Z,83.04
2018-12-30T17:59:38.090Z,83.31
2018-12-30T18:02:04.842Z,83.34
2018-12-30T18:04:32.107Z,83.43
2018-12-30T18:07:04.581Z,83.29
2018-12-30T18:09:31.471Z,83.44
2018-12-30T18:11:58.969Z,83.50
2018-12-30T18:14:27.928Z,83.66
2018-12-30T18:16:55.000Z,83.50
2018-12-30T18:19:21.748Z,83.23
2018-12-30T18:21:48.583Z,83.22
2018-12-30T18:24:17.647Z,82.96
2018-12-30T18:26:44.932Z,82.96
2018-12-30T18:29:11.689Z,83.00
2018-12-30T18:31:38.545Z,82.75
2018-12-30T18:34:05.644Z,82.76
2018-12-30T18:36:32.492Z,82.69
2018-12-30T18:38:59.240Z,82.70
2018-12-30T18:41:26.023Z,82.69
2018-12-30T18:43:52.951Z,82.57
2018-12-30T18:46:19.693Z,82.51
2018-12-30T18:48:46.411Z,82.30
2018-12-30T18:51:13.136Z,82.18
2018-12-30T18:53:39.846Z,82.11
2018-12-30T18:56:07.190Z,82.21
2018-12-30T18:58:34.141Z,82.24
2018-12-30T19:01:01.741Z,82.28
2018-12-30T19:03:28.998Z,82.10
2018-12-30T19:05:55.973Z,82.39
2018-12-30T19:08:22.889Z,82.29
2018-12-30T19:10:49.635Z,82.33
2018-12-30T19:13:16.508Z,82.11
2018-12-30T19:15:43.589Z,82.05
2018-12-30T19:18:10.353Z,82.40
2018-12-30T19:20:37.096Z,82.50
2018-12-30T19:23:06.869Z,82.52
2018-12-30T19:25:33.597Z,82.40
2018-12-30T19:28:03.231Z,82.59
2018-12-30T19:30:31.090Z,82.68
2018-12-30T19:32:57.809Z,82.83
2018-12-30T19:35:24.567Z,82.95
2018-12-30T19:37:51.283Z,82.76
2018-12-30T19:40:18.047Z,82.86
2018-12-30T19:42:44.921Z,82.97
2018-12-30T19:45:11.679Z,83.17
2018-12-30T19:47:38.438Z,83.27
2018-12-30T19:50:05.564Z,82.80
2018-12-30T19:52:32.315Z,82.73
2018-12-30T19:54:59.024Z,82.61
2018-12-30T19:57:25.992Z,82.74
2018-12-30T19:59:53.175Z,82.87
2018-12-30T20:02:19.905Z,82.73
2018-12-30T20:04:46.635Z,83.23
2018-12-30T20:07:14.399Z,83.34
2018-12-30T20:09:41.856Z,83.38
2018-12-30T20:12:08.901Z,83.30
2018-12-30T20:14:35.821Z,83.40
2018-12-30T20:17:02.602Z,83.40
2018-12-30T20:19:29.420Z,83.34
2018-12-30T20:21:56.774Z,83.25
2018-12-30T20:24:23.699Z,83.54
2018-12-30T20:26:50.551Z,83.58
2018-12-30T20:29:17.444Z,83.55
2018-12-30T20:31:44.167Z,83.59
2018-12-30T20:34:12.004Z,83.60
2018-12-30T20:36:39.321Z,84.50
2018-12-30T20:39:06.754Z,84.50
2018-12-30T20:41:33.741Z,84.04
2018-12-30T20:44:00.587Z,83.80
2018-12-30T20:46:28.270Z,83.99
2018-12-30T20:48:55.027Z,84.53
2018-12-30T20:51:21.781Z,84.83
2018-12-30T20:53:48.524Z,84.75
2018-12-30T20:56:17.306Z,84.97
2018-12-30T20:58:44.050Z,85.12
2018-12-30T21:01:10.765Z,85.34
2018-12-30T21:03:37.533Z,85.38
2018-12-30T21:06:04.405Z,85.44
2018-12-30T21:08:31.540Z,85.70
2018-12-30T21:10:58.867Z,86.20
2018-12-30T21:13:25.739Z,86.39
2018-12-30T21:15:53.724Z,86.60
2018-12-30T21:18:21.002Z,86.82
2018-12-30T21:20:48.186Z,87.21
2018-12-30T21:23:15.311Z,87.44
2018-12-30T21:25:42.063Z,87.43
2018-12-30T21:28:09.288Z,87.20
2018-12-30T21:30:36.043Z,87.65
2018-12-30T21:33:03.446Z,87.83
2018-12-30T21:35:30.639Z,88.04
2018-12-30T21:37:57.611Z,88.27
2018-12-30T21:40:25.089Z,88.68
2018-12-30T21:42:52.142Z,88.85
2018-12-30T21:45:18.863Z,88.92
2018-12-30T21:47:46.093Z,88.92
2018-12-30T21:50:12.978Z,88.88
2018-12-30T21:52:39.859Z,88.71
2018-12-30T21:55:07.043Z,88.97
2018-12-30T21:57:36.275Z,89.00
2018-12-30T22:00:04.297Z,89.19
2018-12-30T22:02:31.393Z,89.46
2018-12-30T22:04:58.152Z,89.09
2018-12-30T22:07:25.061Z,89.14
2018-12-30T22:09:52.102Z,89.18
2018-12-30T22:12:18.824Z,88.95
2018-12-30T22:14:47.093Z,89.04
2018-12-30T22:17:14.236Z,89.08
2018-12-30T22:19:41.008Z,89.01
2018-12-30T22:22:08.447Z,88.35
2018-12-30T22:24:35.462Z,88.35
2018-12-30T22:27:02.331Z,88.59
2018-12-30T22:29:29.314Z,88.07
2018-12-30T22:31:56.129Z,88.08
2018-12-30T22:34:23.020Z,87.87
2018-12-30T22:36:49.775Z,87.94
2018-12-30T22:39:16.652Z,87.74
2018-12-30T22:41:43.413Z,87.55
2018-12-30T22:44:10.179Z,87.46
2018-12-30T22:46:37.041Z,87.08
2018-12-30T22:49:03.792Z,87.08
2018-12-30T22:51:30.939Z,88.19
2018-12-30T22:53:58.963Z,88.34
2018-12-30T22:56:25.809Z,88.96
2018-12-30T22:58:52.491Z,88.69
2018-12-30T23:01:23.548Z,88.11
2018-12-30T23:03:50.419Z,87.28
2018-12-30T23:06:17.172Z,87.53
2018-12-30T23:08:43.926Z,87.19
2018-12-30T23:11:10.941Z,86.84
2018-12-30T23:13:37.711Z,86.34
2018-12-30T23:16:04.420Z,86.73
2018-12-30T23:18:31.198Z,86.67
2018-12-30T23:20:57.969Z,86.48
2018-12-30T23:23:24.724Z,86.70
2018-12-30T23:25:51.846Z,86.62
2018-12-30T23:28:21.282Z,86.59
2018-12-30T23:30:48.992Z,87.09
2018-12-30T23:33:15.852Z,86.68
2018-12-30T23:35:42.730Z,86.87
2018-12-30T23:38:09.594Z,87.04
2018-12-30T23:40:36.358Z,86.24
2018-12-30T23:43:05.069Z,86.27
2018-12-30T23:45:31.789Z,86.35
2018-12-30T23:47:58.558Z,86.51
2018-12-30T23:50:25.612Z,86.69
2018-12-30T23:52:52.311Z,87.18
2018-12-30T23:55:19.066Z,86.77
2018-12-30T23:57:45.805Z,86.48
